San Diego, CA

07:27 PST le 30 janvier 2015 (GMT -0800)
Embarcadero North | Change Station
CLOSE
Current Station
Stations météorologiques personnelles
Location: San Diego, CA
Altitude: 10 ft
Stations météo à proximité

Alt. 10 ft 32.72 °N, 117.17 °W | Updated 17 seconds ago

Mostly Cloudy
Nuageux
63.4 ° F
Paraît 63.4 ° F
N
0.0
Vent Variable Vent de Ouest
Gusts 0.0 mph

Aujourd'hui
Haut(e) -- | Bas -- ° F
--% Risque de précip.
Hier
Haut(e) -- | Bas -- ° F
Precip. -- pouce
6:44 AM 5:19 PM
Lune gibbeuse croissante, 83% visible
Pression 29.94 pouce
Visibilité 10.0 Miles terrestres
Nuages Nuageux 8000 ft
Nuageux 10000 ft
Point de rosée 56 ° F
Humidité 76%
Précipitations 0.00 pouce
Profondeur de la couche neigeuse Non disponible.
UV 0 sur 12
Pollen 1.60 sur 12
Qualité de l'air Non disponible.
Flu Activity Non disponible.
METAR KSAN 301451Z 18003KT 10SM BKN080 BKN100 16/13 A2994 RMK AO2 SLP137 T01610128 53000

More Conditions Fewer Conditions

Pression 29.94 pouce
Visibilité 10.0 Miles terrestres
Nuages Nuageux 8000 ft
Nuageux 10000 ft
Point de rosée 56 ° F
Humidité 76%
Précipitations 0.00 pouce
Profondeur de la couche neigeuse Non disponible.
UV 0 sur 12
Pollen 1.60 sur 12
Qualité de l'air Non disponible.
Flu Activity Non disponible.
METAR KSAN 301451Z 18003KT 10SM BKN080 BKN100 16/13 A2994 RMK AO2 SLP137 T01610128 53000

More Conditions Fewer Conditions

10-Day Weather Forecast

Almanac

Astronomie

Jan. 30, 2015 Lever Coucher
Temps réel
Crépuscule civil
Crépuscule nautique
Crépuscule astronomique
Lune
Durée de lumière visible
Longueur du jour
Tomorrow will be .
, % of the Moon is Illuminated

Extrêmes aujourd'hui

State Highs State Lows

Community

WunderPhotos

Upload Photos

1,791,787 Photos téléchargées !

WunderBlogs® & News

Nearby

Qualité de l'air

  Qualité de l'air Indice de la qualité de l'air Polluant
Not available.

Épaisseur de neige

Station Depth Altitude

Activité sismique

Ville Distance Mag. Time & Date
Minimum magnitude displayed is 2.5.

Températures des eaux côtières

Lieu Température

Stations météo à proximité